createdAt,value
2019-04-03T00:01:45.078Z,71.01
2019-04-03T00:04:34.399Z,71.16
2019-04-03T00:07:05.532Z,71.16
2019-04-03T00:09:37.577Z,71.12
2019-04-03T00:12:07.055Z,71.68
2019-04-03T00:14:36.680Z,71.67
2019-04-03T00:17:06.408Z,72.11
2019-04-03T00:19:35.930Z,72.28
2019-04-03T00:22:24.395Z,72.77
2019-04-03T00:27:53.226Z,72.80
2019-04-03T00:35:54.005Z,73.10
2019-04-03T00:38:25.750Z,73.22
2019-04-03T00:40:55.740Z,73.35
2019-04-03T00:43:26.887Z,73.41
2019-04-03T00:46:29.522Z,73.38
2019-04-03T00:48:55.348Z,73.52
2019-04-03T00:51:43.751Z,74.08
2019-04-03T00:54:13.524Z,74.08
2019-04-03T00:57:04.277Z,74.52
2019-04-03T00:59:34.364Z,74.90
2019-04-03T01:02:04.264Z,74.79
2019-04-03T01:04:53.104Z,74.59
2019-04-03T01:07:22.805Z,74.55
2019-04-03T01:13:12.897Z,75.39
2019-04-03T01:18:50.621Z,75.96
2019-04-03T01:21:20.241Z,76.07
2019-04-03T01:24:11.251Z,75.53
2019-04-03T01:29:54.660Z,75.93
2019-04-03T01:32:24.679Z,76.14
2019-04-03T01:35:13.270Z,76.34
2019-04-03T01:40:25.673Z,76.68
2019-04-03T01:43:14.643Z,76.99
2019-04-03T01:46:03.722Z,76.99
2019-04-03T01:48:33.457Z,76.95
2019-04-03T01:51:03.136Z,77.02
2019-04-03T01:53:33.253Z,77.31
2019-04-03T01:56:05.108Z,77.39
2019-04-03T02:01:15.685Z,77.47
2019-04-03T02:03:45.469Z,77.47
2019-04-03T02:06:14.910Z,77.56
2019-04-03T02:08:45.345Z,78.00
2019-04-03T02:11:18.087Z,78.09
2019-04-03T02:13:47.432Z,78.22
2019-04-03T02:16:29.212Z,78.22
2019-04-03T02:18:58.701Z,78.09
2019-04-03T02:21:30.594Z,77.91
2019-04-03T02:24:21.309Z,77.91
2019-04-03T02:29:46.439Z,78.15
2019-04-03T02:32:16.161Z,78.15
2019-04-03T02:34:45.633Z,77.99
2019-04-03T02:37:17.169Z,78.32
2019-04-03T02:39:46.384Z,78.32
2019-04-03T02:42:15.835Z,78.05
2019-04-03T02:44:45.387Z,78.23
2019-04-03T02:47:16.260Z,78.17
2019-04-03T02:52:34.450Z,78.23
2019-04-03T02:55:24.784Z,78.69
2019-04-03T02:57:54.470Z,78.69
2019-04-03T03:00:24.043Z,78.78
2019-04-03T03:03:24.631Z,78.86
2019-04-03T03:06:05.259Z,79.01
2019-04-03T03:08:40.358Z,79.01
2019-04-03T03:11:28.893Z,78.97
2019-04-03T03:13:58.545Z,78.97
2019-04-03T03:16:28.537Z,79.02
2019-04-03T03:19:20.251Z,79.02
2019-04-03T03:22:10.288Z,79.18
2019-04-03T03:30:41.836Z,79.16
2019-04-03T03:33:32.730Z,79.11
2019-04-03T03:36:27.542Z,79.00
2019-04-03T03:39:16.881Z,79.12
2019-04-03T03:42:06.750Z,79.12
2019-04-03T03:47:52.091Z,78.98
2019-04-03T03:50:49.106Z,79.05
2019-04-03T03:53:19.087Z,79.17
2019-04-03T03:56:00.236Z,79.11
2019-04-03T03:58:30.197Z,79.22
2019-04-03T04:01:19.187Z,78.97
2019-04-03T04:03:48.996Z,78.72
2019-04-03T04:06:22.520Z,78.72
2019-04-03T04:09:10.957Z,78.58
2019-04-03T04:12:04.401Z,78.58
2019-04-03T04:14:31.996Z,78.35
2019-04-03T04:17:02.026Z,78.56
2019-04-03T04:19:31.725Z,78.39
2019-04-03T04:22:01.299Z,78.43
2019-04-03T04:30:27.472Z,77.92
2019-04-03T04:33:17.225Z,77.92
2019-04-03T04:35:47.059Z,77.80
2019-04-03T04:38:17.015Z,77.67
2019-04-03T04:40:46.416Z,77.55
2019-04-03T04:43:16.250Z,77.28
2019-04-03T04:48:45.339Z,76.95
2019-04-03T04:51:14.955Z,76.97
2019-04-03T04:53:44.720Z,76.84
2019-04-03T04:56:15.557Z,76.76
2019-04-03T05:01:33.635Z,76.31
2019-04-03T05:04:03.828Z,76.09
2019-04-03T05:06:34.914Z,75.99
2019-04-03T05:12:09.771Z,75.59
2019-04-03T05:14:39.497Z,75.47
2019-04-03T05:17:09.190Z,75.19
2019-04-03T05:19:38.934Z,75.16
2019-04-03T05:22:08.399Z,75.04
2019-04-03T05:24:49.069Z,74.87
2019-04-03T05:27:18.475Z,74.75
2019-04-03T05:29:48.392Z,74.67
2019-04-03T05:32:17.773Z,74.50
2019-04-03T05:35:01.546Z,74.47
2019-04-03T05:37:30.960Z,74.25
2019-04-03T05:40:00.568Z,74.33
2019-04-03T05:42:30.169Z,73.96
2019-04-03T05:44:59.579Z,74.00
2019-04-03T05:47:29.242Z,73.75
2019-04-03T05:49:58.637Z,73.64
2019-04-03T05:52:28.318Z,73.71
2019-04-03T05:54:57.787Z,73.32
2019-04-03T05:57:28.908Z,73.02
2019-04-03T06:00:01.326Z,72.92
2019-04-03T06:02:29.543Z,72.89
2019-04-03T06:04:58.965Z,72.88
2019-04-03T06:07:28.406Z,72.88
2019-04-03T06:10:16.818Z,72.13
2019-04-03T06:12:46.668Z,72.13
2019-04-03T06:15:36.490Z,72.16
2019-04-03T06:18:06.138Z,71.98
2019-04-03T06:20:35.741Z,72.00
2019-04-03T06:23:24.166Z,71.23
2019-04-03T06:25:53.811Z,71.23
2019-04-03T06:28:23.423Z,70.81
2019-04-03T06:33:31.087Z,70.34
2019-04-03T06:36:10.222Z,70.03
2019-04-03T06:38:42.604Z,69.45
2019-04-03T06:41:12.022Z,68.76
2019-04-03T06:43:53.977Z,68.46
2019-04-03T06:46:22.608Z,68.24
2019-04-03T06:48:55.698Z,67.68
2019-04-03T06:51:25.325Z,67.42
2019-04-03T06:53:54.818Z,66.99
2019-04-03T06:56:24.181Z,66.06
2019-04-03T06:58:53.872Z,66.11
2019-04-03T07:01:23.284Z,66.00
2019-04-03T07:03:52.803Z,65.69
2019-04-03T07:06:22.566Z,65.66
2019-04-03T07:08:52.240Z,64.78
2019-04-03T07:12:01.171Z,64.66
2019-04-03T07:14:30.790Z,64.14
2019-04-03T07:17:01.479Z,63.97
2019-04-03T07:19:31.357Z,63.61
2019-04-03T07:30:23.644Z,62.64
2019-04-03T07:33:11.999Z,62.29
2019-04-03T07:35:43.673Z,61.35
2019-04-03T07:38:13.076Z,61.19
2019-04-03T07:40:42.568Z,60.67
2019-04-03T07:43:11.990Z,60.20
2019-04-03T07:45:43.914Z,60.05
2019-04-03T07:51:12.834Z,59.47
2019-04-03T07:53:53.397Z,59.08
2019-04-03T07:59:16.504Z,57.82
2019-04-03T08:01:45.906Z,57.51
2019-04-03T08:04:16.588Z,57.02
2019-04-03T08:06:46.523Z,56.66
2019-04-03T08:09:28.041Z,56.38
2019-04-03T08:11:57.757Z,56.50
2019-04-03T08:14:46.095Z,56.11
2019-04-03T08:17:16.718Z,55.51
2019-04-03T08:22:54.076Z,54.94
2019-04-03T08:25:23.475Z,54.93
2019-04-03T08:27:55.377Z,54.39
2019-04-03T08:31:03.462Z,53.91
2019-04-03T08:33:33.627Z,54.60
2019-04-03T08:36:06.818Z,54.63
2019-04-03T08:38:36.434Z,54.40
2019-04-03T08:41:07.520Z,54.42
2019-04-03T08:46:35.357Z,53.72
2019-04-03T08:49:04.939Z,53.36
2019-04-03T08:51:34.907Z,52.78
2019-04-03T08:54:04.479Z,52.80
2019-04-03T08:56:34.097Z,52.49
2019-04-03T08:59:24.325Z,52.02
2019-04-03T09:01:55.267Z,52.27
2019-04-03T09:04:25.000Z,51.37
2019-04-03T09:06:54.704Z,51.02
2019-04-03T09:09:24.085Z,51.30
2019-04-03T09:11:53.563Z,51.14
2019-04-03T09:14:24.994Z,50.50
2019-04-03T09:16:54.363Z,50.28
2019-04-03T09:22:01.746Z,50.22
2019-04-03T09:24:31.206Z,50.46
2019-04-03T09:27:00.736Z,49.91
2019-04-03T09:29:30.077Z,50.04
2019-04-03T09:32:18.369Z,49.58
2019-04-03T09:34:59.098Z,49.25
2019-04-03T09:37:45.322Z,49.02
2019-04-03T09:43:23.223Z,47.78
2019-04-03T09:45:53.813Z,47.57
2019-04-03T09:48:45.348Z,47.60
2019-04-03T09:51:16.024Z,47.29
2019-04-03T09:53:46.182Z,46.46
2019-04-03T09:56:15.595Z,46.34
2019-04-03T09:58:45.441Z,46.20
2019-04-03T10:01:17.983Z,46.51
2019-04-03T10:03:46.038Z,45.82
2019-04-03T10:06:15.472Z,45.15
2019-04-03T10:08:45.162Z,45.60
2019-04-03T10:11:15.673Z,45.12
2019-04-03T10:13:45.947Z,44.66
2019-04-03T10:16:27.423Z,44.71
2019-04-03T10:18:56.975Z,44.18
2019-04-03T10:21:28.911Z,44.66
2019-04-03T10:23:59.985Z,44.61
2019-04-03T10:26:31.682Z,44.73
2019-04-03T10:29:00.755Z,44.65
2019-04-03T10:31:30.379Z,44.25
2019-04-03T10:34:00.911Z,44.13
2019-04-03T10:36:31.793Z,44.15
2019-04-03T10:39:01.213Z,44.55
2019-04-03T10:41:30.610Z,44.26
2019-04-03T10:44:00.368Z,43.56
2019-04-03T10:46:29.742Z,43.72
2019-04-03T10:49:00.508Z,43.57
2019-04-03T10:51:31.446Z,43.58
2019-04-03T10:54:01.265Z,43.20
2019-04-03T10:56:31.585Z,43.65
2019-04-03T10:59:11.069Z,43.31
2019-04-03T11:01:32.873Z,43.52
2019-04-03T11:04:02.258Z,42.89
2019-04-03T11:06:31.742Z,42.63
2019-04-03T11:09:01.149Z,42.65
2019-04-03T11:11:30.661Z,42.89
2019-04-03T11:14:02.425Z,43.52
2019-04-03T11:16:31.421Z,42.60
2019-04-03T11:19:05.018Z,42.09
2019-04-03T11:21:32.279Z,41.72
2019-04-03T11:24:01.664Z,41.96
2019-04-03T11:26:31.097Z,42.03
2019-04-03T11:29:00.741Z,41.86
2019-04-03T11:31:33.579Z,41.55
2019-04-03T11:34:20.406Z,41.79
2019-04-03T11:39:33.475Z,41.58
2019-04-03T11:44:57.340Z,41.47
2019-04-03T11:47:40.423Z,40.80
2019-04-03T11:50:49.249Z,40.98
2019-04-03T11:56:13.987Z,41.14
2019-04-03T11:58:44.649Z,40.82
2019-04-03T12:04:31.288Z,41.77
2019-04-03T12:07:00.861Z,40.65
2019-04-03T12:09:31.660Z,40.61
2019-04-03T12:12:01.590Z,40.71
2019-04-03T12:14:31.242Z,41.34
2019-04-03T12:17:00.725Z,41.57
2019-04-03T12:19:30.443Z,41.48
2019-04-03T12:21:59.895Z,41.87
2019-04-03T12:24:29.385Z,41.59
2019-04-03T12:26:58.846Z,41.21
2019-04-03T12:29:28.495Z,41.04
2019-04-03T12:31:58.181Z,41.18
2019-04-03T12:34:27.700Z,41.26
2019-04-03T12:36:57.158Z,40.94
2019-04-03T12:39:27.864Z,41.08
2019-04-03T12:41:58.271Z,40.99
2019-04-03T12:44:41.426Z,41.43
2019-04-03T12:49:45.524Z,41.71
2019-04-03T12:52:15.263Z,41.62
2019-04-03T12:54:58.120Z,41.97
2019-04-03T12:57:27.894Z,41.90
2019-04-03T12:59:57.852Z,42.29
2019-04-03T13:02:46.256Z,42.38
2019-04-03T13:08:29.799Z,42.83
2019-04-03T13:10:59.499Z,43.28
2019-04-03T13:13:28.996Z,43.04
2019-04-03T13:15:58.933Z,42.91
2019-04-03T13:18:28.854Z,42.86
2019-04-03T13:20:58.845Z,42.80
2019-04-03T13:23:28.255Z,42.67
2019-04-03T13:25:57.719Z,42.31
2019-04-03T13:28:46.093Z,42.08
2019-04-03T13:31:27.736Z,41.70
2019-04-03T13:33:57.287Z,41.19
2019-04-03T13:36:26.683Z,40.98
2019-04-03T13:38:58.150Z,40.27
2019-04-03T13:49:19.207Z,40.91
2019-04-03T13:51:50.745Z,41.43
2019-04-03T13:54:20.606Z,41.65
2019-04-03T13:57:01.204Z,41.80
2019-04-03T13:59:30.660Z,41.93
2019-04-03T14:02:00.163Z,42.27
2019-04-03T14:04:30.051Z,42.30
2019-04-03T14:07:03.762Z,42.45
2019-04-03T14:09:45.087Z,42.50
2019-04-03T14:12:36.540Z,42.49
2019-04-03T14:15:05.486Z,42.75
2019-04-03T14:17:40.054Z,42.83
2019-04-03T14:23:36.494Z,43.01
2019-04-03T14:26:08.019Z,42.89
2019-04-03T14:28:58.196Z,42.14
2019-04-03T14:31:34.688Z,41.78
2019-04-03T14:34:00.368Z,41.91
2019-04-03T14:36:29.978Z,41.85
2019-04-03T14:39:03.509Z,41.61
2019-04-03T14:41:35.274Z,41.23
2019-04-03T14:44:06.961Z,41.60
2019-04-03T14:46:36.389Z,41.16
2019-04-03T14:49:09.206Z,41.11
2019-04-03T14:51:38.907Z,41.32
2019-04-03T14:54:10.118Z,41.33
2019-04-03T14:56:40.043Z,41.32
2019-04-03T14:59:13.716Z,41.53
2019-04-03T15:01:42.157Z,41.61
2019-04-03T15:04:36.108Z,41.50
2019-04-03T15:07:07.757Z,41.69
2019-04-03T15:09:33.020Z,41.82
2019-04-03T15:12:02.747Z,42.41
2019-04-03T15:14:32.469Z,42.56
2019-04-03T15:17:04.253Z,42.83
2019-04-03T15:19:39.207Z,43.12
2019-04-03T15:22:11.620Z,43.35
2019-04-03T15:25:07.487Z,43.65
2019-04-03T15:27:37.236Z,43.99
2019-04-03T15:30:12.662Z,44.49
2019-04-03T15:32:42.415Z,44.78
2019-04-03T15:35:12.514Z,45.10
2019-04-03T15:37:52.331Z,45.39
2019-04-03T15:40:25.887Z,45.48
2019-04-03T15:45:38.166Z,45.96
2019-04-03T15:51:01.253Z,45.96
2019-04-03T15:53:31.869Z,45.98
2019-04-03T15:56:01.513Z,46.11
2019-04-03T15:58:31.014Z,46.50
2019-04-03T16:01:00.567Z,46.59
2019-04-03T16:03:31.941Z,46.62
2019-04-03T16:08:53.566Z,46.61
2019-04-03T16:11:43.793Z,46.58
2019-04-03T16:14:13.693Z,46.40
2019-04-03T16:16:48.007Z,46.00
2019-04-03T16:19:17.769Z,46.13
2019-04-03T16:21:47.241Z,46.18
2019-04-03T16:24:16.878Z,45.77
2019-04-03T16:26:48.255Z,45.80
2019-04-03T16:29:31.670Z,46.18
2019-04-03T16:31:54.133Z,46.70
2019-04-03T16:34:23.161Z,47.20
2019-04-03T16:39:54.837Z,47.95
2019-04-03T16:48:08.652Z,48.32
2019-04-03T16:50:39.650Z,48.55
2019-04-03T16:53:10.730Z,48.66
2019-04-03T16:55:40.305Z,48.92
2019-04-03T16:58:12.527Z,49.21
2019-04-03T17:00:42.829Z,49.46
2019-04-03T17:03:16.400Z,49.92
2019-04-03T17:08:21.752Z,50.22
2019-04-03T17:10:51.258Z,50.40
2019-04-03T17:16:29.658Z,50.53
2019-04-03T17:18:59.165Z,50.53
2019-04-03T17:21:35.768Z,50.53
2019-04-03T17:24:00.282Z,50.55
2019-04-03T17:26:29.775Z,50.69
2019-04-03T17:29:03.856Z,50.85
2019-04-03T17:31:30.790Z,51.29
2019-04-03T17:34:02.380Z,51.71
2019-04-03T17:36:43.074Z,52.14
2019-04-03T17:39:12.803Z,52.53
2019-04-03T17:41:42.545Z,53.08
2019-04-03T17:46:48.929Z,53.46
2019-04-03T17:49:29.731Z,53.91
2019-04-03T17:51:59.293Z,54.35
2019-04-03T17:54:28.711Z,54.75
2019-04-03T17:56:58.229Z,55.01
2019-04-03T17:59:27.636Z,55.49
2019-04-03T18:01:58.154Z,55.87
2019-04-03T18:04:27.824Z,56.14
2019-04-03T18:06:57.990Z,56.41
2019-04-03T18:09:28.580Z,56.67
2019-04-03T18:11:58.222Z,56.83
2019-04-03T18:14:29.246Z,57.10
2019-04-03T18:17:01.169Z,57.14
2019-04-03T18:19:37.306Z,57.22
2019-04-03T18:22:01.165Z,57.38
2019-04-03T18:24:30.605Z,57.57
2019-04-03T18:27:02.251Z,57.69
2019-04-03T18:29:31.181Z,57.74
2019-04-03T18:34:55.710Z,57.89
2019-04-03T18:37:24.314Z,58.14
2019-04-03T18:39:53.720Z,58.36
2019-04-03T18:42:23.115Z,58.63
2019-04-03T18:47:40.544Z,58.88
2019-04-03T18:50:03.544Z,58.84
2019-04-03T18:52:38.548Z,59.11
2019-04-03T18:55:27.432Z,59.23
2019-04-03T19:03:17.013Z,59.45
2019-04-03T19:08:27.631Z,59.92
2019-04-03T19:14:03.754Z,60.25
2019-04-03T19:16:46.329Z,60.32
2019-04-03T19:19:16.324Z,60.44
2019-04-03T19:21:44.800Z,60.75
2019-04-03T19:24:14.322Z,60.96
2019-04-03T19:26:43.937Z,60.91
2019-04-03T19:29:13.467Z,61.06
2019-04-03T19:31:43.256Z,61.00
2019-04-03T19:37:11.854Z,60.94
2019-04-03T19:42:06.965Z,61.15
2019-04-03T19:44:49.767Z,61.23
2019-04-03T19:47:19.497Z,61.33
2019-04-03T19:50:07.908Z,61.57
2019-04-03T19:52:41.589Z,61.64
2019-04-03T19:55:29.247Z,61.83
2019-04-03T19:58:13.097Z,61.90
2019-04-03T20:00:30.510Z,62.12
2019-04-03T20:03:14.197Z,62.27
2019-04-03T20:05:44.440Z,62.45
2019-04-03T20:08:13.947Z,62.56
2019-04-03T20:10:43.438Z,62.77
2019-04-03T20:13:13.038Z,62.80
2019-04-03T20:15:42.534Z,62.96
2019-04-03T20:18:30.947Z,63.04
2019-04-03T20:21:03.574Z,63.09
2019-04-03T20:23:44.374Z,63.33
2019-04-03T20:26:32.686Z,63.57
2019-04-03T20:29:02.572Z,63.61
2019-04-03T20:31:31.980Z,63.85
2019-04-03T20:34:01.717Z,63.89
2019-04-03T20:39:08.790Z,64.03
2019-04-03T20:41:38.419Z,63.85
2019-04-03T20:44:08.029Z,63.79
2019-04-03T20:46:37.685Z,63.84
2019-04-03T20:51:35.337Z,64.03
2019-04-03T20:54:04.823Z,64.12
2019-04-03T20:56:57.545Z,63.97
2019-04-03T20:59:24.518Z,64.13
2019-04-03T21:01:54.101Z,64.08
2019-04-03T21:04:25.561Z,64.23
2019-04-03T21:06:55.039Z,64.15
2019-04-03T21:09:24.696Z,64.14
2019-04-03T21:11:54.117Z,64.12
2019-04-03T21:14:23.575Z,64.09
2019-04-03T21:16:56.172Z,64.00
2019-04-03T21:19:26.783Z,64.03
2019-04-03T21:22:15.091Z,64.09
2019-04-03T21:24:56.669Z,64.18
2019-04-03T21:27:26.059Z,64.24
2019-04-03T21:29:58.100Z,64.37
2019-04-03T21:32:28.644Z,64.54
2019-04-03T21:34:58.015Z,64.65
2019-04-03T21:37:27.418Z,64.86
2019-04-03T21:39:56.882Z,64.71
2019-04-03T21:42:26.990Z,65.12
2019-04-03T21:44:57.489Z,65.17
2019-04-03T21:47:27.034Z,65.24
2019-04-03T21:49:56.434Z,65.11
2019-04-03T21:52:25.923Z,65.04
2019-04-03T21:54:58.404Z,65.23
2019-04-03T22:00:01.174Z,65.65
2019-04-03T22:02:30.711Z,65.75
2019-04-03T22:05:00.129Z,65.90
2019-04-03T22:07:29.523Z,66.06
2019-04-03T22:10:01.612Z,66.34
2019-04-03T22:12:30.230Z,66.50
2019-04-03T22:15:14.607Z,66.73
2019-04-03T22:18:02.987Z,66.97
2019-04-03T22:20:44.411Z,67.32
2019-04-03T22:23:14.286Z,67.39
2019-04-03T22:28:34.534Z,67.85
2019-04-03T22:31:06.429Z,67.91
2019-04-03T22:33:35.830Z,68.44
2019-04-03T22:38:40.361Z,68.58
2019-04-03T22:41:12.120Z,68.74
2019-04-03T22:43:44.136Z,68.71
2019-04-03T22:46:15.007Z,68.98
2019-04-03T22:48:44.400Z,68.93
2019-04-03T22:51:13.843Z,69.26
2019-04-03T22:53:46.182Z,69.55
2019-04-03T22:59:04.078Z,69.45
2019-04-03T23:01:33.538Z,69.58
2019-04-03T23:04:04.951Z,69.51
2019-04-03T23:06:34.127Z,69.37
2019-04-03T23:09:24.682Z,69.65
2019-04-03T23:11:53.966Z,69.70
2019-04-03T23:14:23.417Z,69.67
2019-04-03T23:17:01.246Z,69.91
2019-04-03T23:22:45.589Z,69.91
2019-04-03T23:25:15.007Z,70.01
2019-04-03T23:27:44.366Z,70.09
2019-04-03T23:30:13.880Z,70.22
2019-04-03T23:32:45.715Z,70.24
2019-04-03T23:35:14.471Z,70.27
2019-04-03T23:37:43.954Z,70.52
2019-04-03T23:40:13.412Z,70.62
2019-04-03T23:47:55.755Z,70.87
2019-04-03T23:53:21.337Z,71.07
2019-04-03T23:55:55.323Z,71.11
2019-04-03T23:58:24.747Z,71.10
